Apache Junction, AZ

5:32 PM MST on April 27, 2015 (GMT -0700)
Superstition Foothills | | Change Station
CLOSE
Current Station
Personal Weather Station
Location: Apache Junction, AZ
Elevation: 1916 ft
Nearby Weather Stations

Elev 1916 ft 33.41 °N, 111.47 °W | Updated 11 minutes ago

Clear
Clear
83.3 °F
Feels Like 81 °F
N
9.0
Wind Variable Wind from WNW
Gusts 13.0 mph

Today
High -- | Low -- °F
--% Chance of Precip.
Yesterday
High -- | Low -- °F
Precip. -- in
5:41 AM 7:04 PM
Waxing Gibbous, 69% visible
Pressure 29.86 in
Visibility 45.0 miles
Clouds Few 20000 ft
Heat Index 81 °F
Dew Point 44 °F
Humidity 25%
Rainfall 0.00 in
Snow Depth Not available.
UV 2 out of 12
Pollen 7.20 out of 12
Air Quality Not available.
Flu Activity Local Activity
METAR KIWA 272347Z 30005KT 45SM FEW200 28/04 A2986

More Conditions Fewer Conditions

Pressure 29.86 in
Visibility 45.0 miles
Clouds Few 20000 ft
Heat Index 81 °F
Dew Point 44 °F
Humidity 25%
Rainfall 0.00 in
Snow Depth Not available.
UV 2 out of 12
Pollen 7.20 out of 12
Air Quality Not available.
Flu Activity Local Activity
METAR KIWA 272347Z 30005KT 45SM FEW200 28/04 A2986

More Conditions Fewer Conditions

10-Day Weather Forecast

Almanac

Astronomy

Apr. 27, 2015 Rise Set
Actual Time
Civil Twilight
Nautical Twilight
Astronomical Twilight
Moon
Length of Visible Light
Length of Day
Tomorrow will be .
, % of the Moon is Illuminated

Today's Extremes

State Highs State Lows

Community

WunderPhotos

Upload Photos

1,817,496 photos uploaded!

WunderBlogs® & News

Nearby

Air Quality

  Air Quality AQ Index Pollutant
Not available.

Snow Depth

Station Depth Elevation

Earthquake Activity

City Distance Mag. Time & Date
Minimum magnitude displayed is 2.5.

Coastal Water Temperatures

Place Temperature

Stations

Nearby Weather Stations

Station Location Temp. Windchill Dew Point Humidity Wind Precip. Elev Updated Type